sensor_id;sensor_type;location;lat;lon;timestamp;P1;durP1;ratioP1;P2;durP2;ratioP2
34459;SDS011;20704;51.260;22.558;2023-01-23T11:42:09;20.17;;;15.67;;
34459;SDS011;20704;51.260;22.558;2023-01-23T12:01:21;11.32;;;5.63;;
34459;SDS011;20704;51.260;22.558;2023-01-23T12:09:04;8.27;;;5.03;;
34459;SDS011;20704;51.260;22.558;2023-01-23T12:13:52;6.57;;;4.53;;
34459;SDS011;20704;51.260;22.558;2023-01-23T12:19:53;7.95;;;5.22;;
34459;SDS011;20704;51.260;22.558;2023-01-23T12:27:34;6.90;;;5.10;;
34459;SDS011;20704;51.260;22.558;2023-01-23T12:37:47;19.13;;;10.43;;
34459;SDS011;20704;51.260;22.558;2023-01-23T12:39:54;24.02;;;11.93;;
34459;SDS011;20704;51.260;22.558;2023-01-23T12:42:03;22.48;;;11.52;;
34459;SDS011;20704;51.260;22.558;2023-01-23T12:46:13;21.85;;;10.80;;
34459;SDS011;20704;51.260;22.558;2023-01-23T12:48:20;20.23;;;9.95;;
34459;SDS011;20704;51.260;22.558;2023-01-23T12:50:44;21.65;;;10.88;;
34459;SDS011;20704;51.260;22.558;2023-01-23T12:53:03;27.38;;;11.07;;
34459;SDS011;20704;51.260;22.558;2023-01-23T12:55:20;27.23;;;13.10;;
34459;SDS011;20704;51.260;22.558;2023-01-23T12:57:25;28.17;;;10.82;;
34459;SDS011;20704;51.260;22.558;2023-01-23T13:00:02;23.65;;;11.05;;
34459;SDS011;20704;51.260;22.558;2023-01-23T13:11:55;22.25;;;9.93;;
34459;SDS011;20704;51.260;22.558;2023-01-23T13:13:45;20.67;;;9.85;;
34459;SDS011;20704;51.260;22.558;2023-01-23T13:18:22;21.45;;;10.98;;
34459;SDS011;20704;51.260;22.558;2023-01-23T13:20:30;22.55;;;10.82;;
34459;SDS011;20704;51.260;22.558;2023-01-23T13:22:52;23.55;;;10.18;;
34459;SDS011;20704;51.260;22.558;2023-01-23T13:29:46;24.45;;;10.82;;
34459;SDS011;20704;51.260;22.558;2023-01-23T13:31:50;25.65;;;12.60;;
34459;SDS011;20704;51.260;22.558;2023-01-23T13:40:30;33.78;;;15.68;;
34459;SDS011;20704;51.260;22.558;2023-01-23T13:42:33;31.25;;;12.70;;
34459;SDS011;20704;51.260;22.558;2023-01-23T13:44:36;33.53;;;15.40;;
34459;SDS011;20704;51.260;22.558;2023-01-23T13:52:13;29.02;;;13.02;;
34459;SDS011;20704;51.260;22.558;2023-01-23T13:54:54;27.08;;;12.63;;
34459;SDS011;20704;51.260;22.558;2023-01-23T13:57:29;33.90;;;13.55;;
34459;SDS011;20704;51.260;22.558;2023-01-23T13:59:46;37.65;;;14.27;;
34459;SDS011;20704;51.260;22.558;2023-01-23T14:02:26;86.50;;;14.60;;
34459;SDS011;20704;51.260;22.558;2023-01-23T14:05:12;41.47;;;16.17;;
34459;SDS011;20704;51.260;22.558;2023-01-23T14:07:33;38.15;;;15.43;;
34459;SDS011;20704;51.260;22.558;2023-01-23T14:10:10;41.42;;;16.58;;
34459;SDS011;20704;51.260;22.558;2023-01-23T14:12:30;46.13;;;15.05;;
34459;SDS011;20704;51.260;22.558;2023-01-23T14:14:49;55.60;;;14.10;;
34459;SDS011;20704;51.260;22.558;2023-01-23T14:17:24;36.07;;;14.13;;
34459;SDS011;20704;51.260;22.558;2023-01-23T14:19:54;51.67;;;14.23;;
34459;SDS011;20704;51.260;22.558;2023-01-23T14:22:11;45.47;;;14.75;;
34459;SDS011;20704;51.260;22.558;2023-01-23T14:24:19;32.22;;;13.80;;
34459;SDS011;20704;51.260;22.558;2023-01-23T14:26:26;30.88;;;12.73;;
34459;SDS011;20704;51.260;22.558;2023-01-23T14:28:30;123.80;;;15.25;;
34459;SDS011;20704;51.260;22.558;2023-01-23T14:30:33;37.83;;;13.90;;
34459;SDS011;20704;51.260;22.558;2023-01-23T14:32:35;43.42;;;13.93;;
34459;SDS011;20704;51.260;22.558;2023-01-23T14:34:39;46.07;;;16.53;;
34459;SDS011;20704;51.260;22.558;2023-01-23T14:36:43;68.47;;;14.95;;
34459;SDS011;20704;51.260;22.558;2023-01-23T14:38:47;44.63;;;15.93;;
34459;SDS011;20704;51.260;22.558;2023-01-23T14:40:50;42.33;;;16.03;;
34459;SDS011;20704;51.260;22.558;2023-01-23T14:42:57;48.13;;;16.10;;
34459;SDS011;20704;51.260;22.558;2023-01-23T14:45:00;42.63;;;14.60;;
34459;SDS011;20704;51.260;22.558;2023-01-23T14:47:03;35.95;;;14.10;;
34459;SDS011;20704;51.260;22.558;2023-01-23T14:49:06;38.80;;;16.17;;
34459;SDS011;20704;51.260;22.558;2023-01-23T14:51:17;40.93;;;14.90;;
34459;SDS011;20704;51.260;22.558;2023-01-23T14:53:24;48.53;;;15.23;;
34459;SDS011;20704;51.260;22.558;2023-01-23T14:55:28;38.43;;;15.50;;
34459;SDS011;20704;51.260;22.558;2023-01-23T14:57:31;41.40;;;14.70;;
34459;SDS011;20704;51.260;22.558;2023-01-23T14:59:37;54.90;;;16.90;;
34459;SDS011;20704;51.260;22.558;2023-01-23T15:01:41;46.83;;;17.10;;
34459;SDS011;20704;51.260;22.558;2023-01-23T15:03:53;67.97;;;17.60;;
34459;SDS011;20704;51.260;22.558;2023-01-23T15:05:57;49.73;;;16.57;;
34459;SDS011;20704;51.260;22.558;2023-01-23T15:08:04;56.00;;;19.17;;
34459;SDS011;20704;51.260;22.558;2023-01-23T15:10:28;55.20;;;18.73;;
34459;SDS011;20704;51.260;22.558;2023-01-23T15:12:35;51.80;;;20.60;;
34459;SDS011;20704;51.260;22.558;2023-01-23T15:14:38;43.53;;;20.93;;
34459;SDS011;20704;51.260;22.558;2023-01-23T15:16:41;107.77;;;21.37;;
34459;SDS011;20704;51.260;22.558;2023-01-23T15:19:00;70.47;;;25.03;;
34459;SDS011;20704;51.260;22.558;2023-01-23T15:21:04;72.70;;;25.25;;
34459;SDS011;20704;51.260;22.558;2023-01-23T15:25:30;65.60;;;23.37;;
34459;SDS011;20704;51.260;22.558;2023-01-23T15:27:34;54.53;;;22.60;;
34459;SDS011;20704;51.260;22.558;2023-01-23T15:29:38;74.43;;;23.13;;
34459;SDS011;20704;51.260;22.558;2023-01-23T15:31:41;58.63;;;22.87;;
34459;SDS011;20704;51.260;22.558;2023-01-23T15:33:47;52.70;;;23.10;;
34459;SDS011;20704;51.260;22.558;2023-01-23T15:35:50;63.87;;;24.07;;
34459;SDS011;20704;51.260;22.558;2023-01-23T15:37:52;51.83;;;21.70;;
34459;SDS011;20704;51.260;22.558;2023-01-23T15:39:59;61.78;;;22.13;;
34459;SDS011;20704;51.260;22.558;2023-01-23T15:42:04;76.30;;;20.02;;
34459;SDS011;20704;51.260;22.558;2023-01-23T15:44:28;64.57;;;21.80;;
34459;SDS011;20704;51.260;22.558;2023-01-23T15:46:32;66.10;;;19.75;;
34459;SDS011;20704;51.260;22.558;2023-01-23T15:48:35;79.88;;;20.83;;
34459;SDS011;20704;51.260;22.558;2023-01-23T15:50:37;57.10;;;17.57;;
34459;SDS011;20704;51.260;22.558;2023-01-23T15:52:44;66.45;;;19.67;;
34459;SDS011;20704;51.260;22.558;2023-01-23T15:54:48;81.53;;;19.97;;
34459;SDS011;20704;51.260;22.558;2023-01-23T15:56:52;73.97;;;19.27;;
34459;SDS011;20704;51.260;22.558;2023-01-23T15:59:11;93.03;;;21.57;;
34459;SDS011;20704;51.260;22.558;2023-01-23T16:01:14;62.40;;;18.47;;
34459;SDS011;20704;51.260;22.558;2023-01-23T16:03:17;68.80;;;20.43;;
34459;SDS011;20704;51.260;22.558;2023-01-23T16:05:19;60.63;;;19.87;;
34459;SDS011;20704;51.260;22.558;2023-01-23T16:07:24;70.63;;;19.73;;
34459;SDS011;20704;51.260;22.558;2023-01-23T16:09:28;57.17;;;18.33;;
34459;SDS011;20704;51.260;22.558;2023-01-23T16:11:32;107.70;;;21.60;;
34459;SDS011;20704;51.260;22.558;2023-01-23T16:13:35;62.10;;;19.13;;
34459;SDS011;20704;51.260;22.558;2023-01-23T16:15:38;74.20;;;21.90;;
34459;SDS011;20704;51.260;22.558;2023-01-23T16:17:41;86.90;;;18.83;;
34459;SDS011;20704;51.260;22.558;2023-01-23T16:19:44;125.03;;;21.90;;
34459;SDS011;20704;51.260;22.558;2023-01-23T16:21:46;77.77;;;19.10;;
34459;SDS011;20704;51.260;22.558;2023-01-23T16:24:05;51.30;;;17.47;;
34459;SDS011;20704;51.260;22.558;2023-01-23T16:26:14;60.40;;;19.50;;
34459;SDS011;20704;51.260;22.558;2023-01-23T16:28:22;56.80;;;20.97;;
34459;SDS011;20704;51.260;22.558;2023-01-23T16:30:28;65.50;;;18.93;;
34459;SDS011;20704;51.260;22.558;2023-01-23T16:32:31;60.05;;;18.20;;
34459;SDS011;20704;51.260;22.558;2023-01-23T16:34:34;65.20;;;19.37;;
34459;SDS011;20704;51.260;22.558;2023-01-23T16:36:37;68.43;;;20.10;;
34459;SDS011;20704;51.260;22.558;2023-01-23T16:38:39;83.33;;;19.77;;
34459;SDS011;20704;51.260;22.558;2023-01-23T16:40:45;58.23;;;18.07;;
34459;SDS011;20704;51.260;22.558;2023-01-23T16:42:49;61.33;;;19.60;;
34459;SDS011;20704;51.260;22.558;2023-01-23T16:44:52;72.75;;;19.58;;
34459;SDS011;20704;51.260;22.558;2023-01-23T16:46:55;72.60;;;19.63;;
34459;SDS011;20704;51.260;22.558;2023-01-23T16:48:58;65.00;;;18.90;;
34459;SDS011;20704;51.260;22.558;2023-01-23T16:51:11;98.50;;;23.77;;
34459;SDS011;20704;51.260;22.558;2023-01-23T16:53:32;78.50;;;21.43;;
34459;SDS011;20704;51.260;22.558;2023-01-23T16:55:39;64.83;;;21.23;;
34459;SDS011;20704;51.260;22.558;2023-01-23T16:57:42;75.90;;;21.87;;
34459;SDS011;20704;51.260;22.558;2023-01-23T16:59:45;71.07;;;20.90;;
34459;SDS011;20704;51.260;22.558;2023-01-23T17:01:50;79.17;;;18.53;;
34459;SDS011;20704;51.260;22.558;2023-01-23T17:03:59;54.90;;;18.77;;
34459;SDS011;20704;51.260;22.558;2023-01-23T17:06:04;70.53;;;18.73;;
34459;SDS011;20704;51.260;22.558;2023-01-23T17:08:25;61.43;;;17.93;;
34459;SDS011;20704;51.260;22.558;2023-01-23T17:10:28;61.53;;;19.27;;
34459;SDS011;20704;51.260;22.558;2023-01-23T17:12:50;57.75;;;17.95;;
34459;SDS011;20704;51.260;22.558;2023-01-23T17:14:54;90.53;;;19.83;;
34459;SDS011;20704;51.260;22.558;2023-01-23T17:17:02;61.97;;;20.30;;
34459;SDS011;20704;51.260;22.558;2023-01-23T17:19:11;89.00;;;21.52;;
34459;SDS011;20704;51.260;22.558;2023-01-23T17:21:19;63.77;;;20.50;;
34459;SDS011;20704;51.260;22.558;2023-01-23T17:23:25;59.27;;;17.93;;
34459;SDS011;20704;51.260;22.558;2023-01-23T17:25:27;60.88;;;18.83;;
34459;SDS011;20704;51.260;22.558;2023-01-23T17:27:32;60.87;;;21.00;;
34459;SDS011;20704;51.260;22.558;2023-01-23T17:29:45;57.10;;;18.93;;
34459;SDS011;20704;51.260;22.558;2023-01-23T17:31:49;51.53;;;17.83;;
34459;SDS011;20704;51.260;22.558;2023-01-23T17:33:53;49.03;;;18.93;;
34459;SDS011;20704;51.260;22.558;2023-01-23T17:35:56;53.23;;;21.00;;
34459;SDS011;20704;51.260;22.558;2023-01-23T17:38:00;58.17;;;18.83;;
34459;SDS011;20704;51.260;22.558;2023-01-23T17:40:03;60.73;;;21.90;;
34459;SDS011;20704;51.260;22.558;2023-01-23T17:42:07;74.40;;;20.40;;
34459;SDS011;20704;51.260;22.558;2023-01-23T17:44:13;118.30;;;23.30;;
34459;SDS011;20704;51.260;22.558;2023-01-23T17:46:18;63.17;;;19.73;;
34459;SDS011;20704;51.260;22.558;2023-01-23T17:48:28;59.57;;;19.83;;
34459;SDS011;20704;51.260;22.558;2023-01-23T17:50:31;51.45;;;18.92;;
34459;SDS011;20704;51.260;22.558;2023-01-23T17:52:34;59.13;;;20.27;;
34459;SDS011;20704;51.260;22.558;2023-01-23T17:54:37;56.30;;;18.50;;
34459;SDS011;20704;51.260;22.558;2023-01-23T17:56:40;85.30;;;19.02;;
34459;SDS011;20704;51.260;22.558;2023-01-23T17:58:43;53.60;;;17.23;;
34459;SDS011;20704;51.260;22.558;2023-01-23T18:00:47;47.67;;;17.87;;
34459;SDS011;20704;51.260;22.558;2023-01-23T18:02:57;59.63;;;17.63;;
34459;SDS011;20704;51.260;22.558;2023-01-23T18:05:00;58.00;;;19.08;;
34459;SDS011;20704;51.260;22.558;2023-01-23T18:07:03;55.30;;;18.07;;
34459;SDS011;20704;51.260;22.558;2023-01-23T18:09:06;77.10;;;20.67;;
34459;SDS011;20704;51.260;22.558;2023-01-23T18:11:16;72.17;;;18.43;;
34459;SDS011;20704;51.260;22.558;2023-01-23T18:18:11;59.87;;;18.30;;
34459;SDS011;20704;51.260;22.558;2023-01-23T18:20:15;59.47;;;16.80;;
34459;SDS011;20704;51.260;22.558;2023-01-23T18:22:18;76.53;;;18.70;;
34459;SDS011;20704;51.260;22.558;2023-01-23T18:30:58;40.15;;;15.70;;
34459;SDS011;20704;51.260;22.558;2023-01-23T18:37:31;50.08;;;16.23;;
34459;SDS011;20704;51.260;22.558;2023-01-23T18:44:15;45.72;;;17.20;;
34459;SDS011;20704;51.260;22.558;2023-01-23T18:46:20;45.22;;;18.58;;
34459;SDS011;20704;51.260;22.558;2023-01-23T18:48:25;47.23;;;17.60;;
34459;SDS011;20704;51.260;22.558;2023-01-23T18:50:27;72.07;;;18.43;;
34459;SDS011;20704;51.260;22.558;2023-01-23T18:52:45;54.00;;;19.10;;
34459;SDS011;20704;51.260;22.558;2023-01-23T18:59:25;55.00;;;20.83;;
34459;SDS011;20704;51.260;22.558;2023-01-23T19:01:41;56.13;;;19.60;;
34459;SDS011;20704;51.260;22.558;2023-01-23T19:03:44;62.93;;;18.93;;
34459;SDS011;20704;51.260;22.558;2023-01-23T19:05:49;49.33;;;18.07;;
34459;SDS011;20704;51.260;22.558;2023-01-23T19:07:52;47.20;;;21.33;;
34459;SDS011;20704;51.260;22.558;2023-01-23T19:09:55;50.93;;;18.60;;
34459;SDS011;20704;51.260;22.558;2023-01-23T19:12:12;52.33;;;19.47;;
34459;SDS011;20704;51.260;22.558;2023-01-23T19:16:43;65.03;;;17.13;;
34459;SDS011;20704;51.260;22.558;2023-01-23T19:18:47;74.13;;;17.63;;
34459;SDS011;20704;51.260;22.558;2023-01-23T19:20:54;56.63;;;18.33;;
34459;SDS011;20704;51.260;22.558;2023-01-23T19:25:02;52.73;;;17.60;;
34459;SDS011;20704;51.260;22.558;2023-01-23T19:27:15;59.27;;;18.40;;
34459;SDS011;20704;51.260;22.558;2023-01-23T19:29:18;52.95;;;16.92;;
34459;SDS011;20704;51.260;22.558;2023-01-23T19:31:27;54.33;;;16.77;;
34459;SDS011;20704;51.260;22.558;2023-01-23T19:33:31;99.00;;;18.47;;
34459;SDS011;20704;51.260;22.558;2023-01-23T19:35:34;58.77;;;17.70;;
34459;SDS011;20704;51.260;22.558;2023-01-23T19:37:37;74.85;;;19.20;;
34459;SDS011;20704;51.260;22.558;2023-01-23T19:39:41;49.97;;;18.23;;
34459;SDS011;20704;51.260;22.558;2023-01-23T19:41:44;96.00;;;18.70;;
34459;SDS011;20704;51.260;22.558;2023-01-23T19:43:51;53.28;;;18.95;;
34459;SDS011;20704;51.260;22.558;2023-01-23T19:45:54;77.85;;;19.58;;
34459;SDS011;20704;51.260;22.558;2023-01-23T19:47:57;173.35;;;25.42;;
34459;SDS011;20704;51.260;22.558;2023-01-23T19:49:59;57.80;;;18.63;;
34459;SDS011;20704;51.260;22.558;2023-01-23T19:52:02;54.00;;;18.20;;
34459;SDS011;20704;51.260;22.558;2023-01-23T19:54:05;53.08;;;18.73;;
34459;SDS011;20704;51.260;22.558;2023-01-23T19:56:14;48.20;;;18.65;;
34459;SDS011;20704;51.260;22.558;2023-01-23T19:58:16;87.85;;;20.85;;
34459;SDS011;20704;51.260;22.558;2023-01-23T20:00:19;57.08;;;20.48;;
34459;SDS011;20704;51.260;22.558;2023-01-23T20:02:22;50.50;;;17.92;;
34459;SDS011;20704;51.260;22.558;2023-01-23T20:04:26;65.80;;;19.17;;
34459;SDS011;20704;51.260;22.558;2023-01-23T20:06:29;52.43;;;18.63;;
34459;SDS011;20704;51.260;22.558;2023-01-23T20:08:32;51.53;;;17.40;;
34459;SDS011;20704;51.260;22.558;2023-01-23T20:10:34;48.60;;;15.65;;
34459;SDS011;20704;51.260;22.558;2023-01-23T20:12:44;78.40;;;18.50;;
34459;SDS011;20704;51.260;22.558;2023-01-23T20:14:47;46.53;;;17.33;;
34459;SDS011;20704;51.260;22.558;2023-01-23T20:16:50;57.20;;;16.90;;
34459;SDS011;20704;51.260;22.558;2023-01-23T20:18:53;47.25;;;14.57;;
34459;SDS011;20704;51.260;22.558;2023-01-23T20:20:59;58.13;;;15.95;;
34459;SDS011;20704;51.260;22.558;2023-01-23T20:23:01;52.70;;;16.25;;
34459;SDS011;20704;51.260;22.558;2023-01-23T20:25:05;45.53;;;14.15;;
34459;SDS011;20704;51.260;22.558;2023-01-23T20:27:08;81.25;;;15.07;;
34459;SDS011;20704;51.260;22.558;2023-01-23T20:29:11;58.53;;;16.48;;
34459;SDS011;20704;51.260;22.558;2023-01-23T20:31:13;40.87;;;15.73;;
34459;SDS011;20704;51.260;22.558;2023-01-23T20:33:16;49.53;;;16.03;;
34459;SDS011;20704;51.260;22.558;2023-01-23T20:35:19;41.87;;;16.20;;
34459;SDS011;20704;51.260;22.558;2023-01-23T20:37:21;49.47;;;17.17;;
34459;SDS011;20704;51.260;22.558;2023-01-23T20:39:24;62.30;;;18.63;;
34459;SDS011;20704;51.260;22.558;2023-01-23T20:41:27;49.10;;;16.87;;
34459;SDS011;20704;51.260;22.558;2023-01-23T20:43:29;46.13;;;15.83;;
34459;SDS011;20704;51.260;22.558;2023-01-23T20:45:32;54.67;;;18.43;;
34459;SDS011;20704;51.260;22.558;2023-01-23T20:47:35;60.97;;;20.17;;
34459;SDS011;20704;51.260;22.558;2023-01-23T20:49:38;78.80;;;19.67;;
34459;SDS011;20704;51.260;22.558;2023-01-23T20:51:41;45.13;;;15.95;;
34459;SDS011;20704;51.260;22.558;2023-01-23T20:53:44;82.45;;;20.38;;
34459;SDS011;20704;51.260;22.558;2023-01-23T20:55:53;83.03;;;18.60;;
34459;SDS011;20704;51.260;22.558;2023-01-23T20:57:57;51.58;;;16.02;;
34459;SDS011;20704;51.260;22.558;2023-01-23T21:00:19;42.30;;;16.80;;
34459;SDS011;20704;51.260;22.558;2023-01-23T21:02:21;44.20;;;15.70;;
34459;SDS011;20704;51.260;22.558;2023-01-23T21:04:26;90.80;;;15.73;;
34459;SDS011;20704;51.260;22.558;2023-01-23T21:06:30;47.90;;;15.83;;
34459;SDS011;20704;51.260;22.558;2023-01-23T21:08:33;62.88;;;16.88;;
34459;SDS011;20704;51.260;22.558;2023-01-23T21:10:36;102.53;;;18.60;;
34459;SDS011;20704;51.260;22.558;2023-01-23T21:12:39;56.58;;;16.92;;
34459;SDS011;20704;51.260;22.558;2023-01-23T21:14:42;46.78;;;16.63;;
34459;SDS011;20704;51.260;22.558;2023-01-23T21:16:44;65.22;;;17.35;;
34459;SDS011;20704;51.260;22.558;2023-01-23T21:18:47;87.60;;;21.33;;
34459;SDS011;20704;51.260;22.558;2023-01-23T21:20:50;114.23;;;18.97;;
34459;SDS011;20704;51.260;22.558;2023-01-23T21:22:53;58.00;;;16.00;;
34459;SDS011;20704;51.260;22.558;2023-01-23T21:24:56;74.00;;;17.30;;
34459;SDS011;20704;51.260;22.558;2023-01-23T21:27:00;116.40;;;19.07;;
34459;SDS011;20704;51.260;22.558;2023-01-23T21:29:05;56.13;;;19.07;;
34459;SDS011;20704;51.260;22.558;2023-01-23T21:31:08;77.63;;;18.80;;
34459;SDS011;20704;51.260;22.558;2023-01-23T21:33:12;52.93;;;16.37;;
34459;SDS011;20704;51.260;22.558;2023-01-23T21:35:14;78.00;;;17.70;;
34459;SDS011;20704;51.260;22.558;2023-01-23T21:37:17;45.42;;;15.38;;
34459;SDS011;20704;51.260;22.558;2023-01-23T21:39:20;45.17;;;14.88;;
34459;SDS011;20704;51.260;22.558;2023-01-23T21:41:22;41.43;;;15.27;;
34459;SDS011;20704;51.260;22.558;2023-01-23T21:43:25;37.17;;;14.87;;
34459;SDS011;20704;51.260;22.558;2023-01-23T21:45:28;37.10;;;15.57;;
34459;SDS011;20704;51.260;22.558;2023-01-23T21:47:31;53.70;;;16.57;;
34459;SDS011;20704;51.260;22.558;2023-01-23T21:49:33;45.83;;;15.23;;
34459;SDS011;20704;51.260;22.558;2023-01-23T21:51:36;40.57;;;13.37;;
34459;SDS011;20704;51.260;22.558;2023-01-23T21:53:40;71.70;;;17.47;;
34459;SDS011;20704;51.260;22.558;2023-01-23T21:55:43;44.50;;;14.50;;
34459;SDS011;20704;51.260;22.558;2023-01-23T21:57:45;51.87;;;17.13;;
34459;SDS011;20704;51.260;22.558;2023-01-23T21:59:48;37.43;;;14.80;;
34459;SDS011;20704;51.260;22.558;2023-01-23T22:02:09;44.13;;;13.80;;
34459;SDS011;20704;51.260;22.558;2023-01-23T22:06:15;54.20;;;13.93;;
34459;SDS011;20704;51.260;22.558;2023-01-23T22:08:17;47.97;;;15.30;;
34459;SDS011;20704;51.260;22.558;2023-01-23T22:10:20;42.80;;;14.70;;
34459;SDS011;20704;51.260;22.558;2023-01-23T22:12:23;44.83;;;14.60;;
34459;SDS011;20704;51.260;22.558;2023-01-23T22:14:28;60.90;;;16.23;;
34459;SDS011;20704;51.260;22.558;2023-01-23T22:16:31;54.63;;;19.47;;
34459;SDS011;20704;51.260;22.558;2023-01-23T22:18:48;44.33;;;17.43;;
34459;SDS011;20704;51.260;22.558;2023-01-23T22:20:52;56.73;;;19.07;;
34459;SDS011;20704;51.260;22.558;2023-01-23T22:22:55;45.37;;;17.43;;
34459;SDS011;20704;51.260;22.558;2023-01-23T22:24:57;44.50;;;14.77;;
34459;SDS011;20704;51.260;22.558;2023-01-23T22:27:00;42.40;;;15.23;;
34459;SDS011;20704;51.260;22.558;2023-01-23T22:29:04;41.63;;;15.07;;
34459;SDS011;20704;51.260;22.558;2023-01-23T22:31:09;39.73;;;13.63;;
34459;SDS011;20704;51.260;22.558;2023-01-23T22:33:12;51.50;;;16.57;;
34459;SDS011;20704;51.260;22.558;2023-01-23T22:35:14;42.20;;;13.77;;
34459;SDS011;20704;51.260;22.558;2023-01-23T22:37:17;59.93;;;17.53;;
34459;SDS011;20704;51.260;22.558;2023-01-23T22:39:22;41.10;;;15.17;;
34459;SDS011;20704;51.260;22.558;2023-01-23T22:41:25;47.57;;;14.60;;
34459;SDS011;20704;51.260;22.558;2023-01-23T22:43:29;40.53;;;14.77;;
34459;SDS011;20704;51.260;22.558;2023-01-23T22:45:32;40.43;;;15.37;;
34459;SDS011;20704;51.260;22.558;2023-01-23T22:47:35;38.40;;;14.47;;
34459;SDS011;20704;51.260;22.558;2023-01-23T22:49:37;36.27;;;14.30;;
34459;SDS011;20704;51.260;22.558;2023-01-23T22:51:40;32.63;;;14.23;;
34459;SDS011;20704;51.260;22.558;2023-01-23T22:53:42;28.87;;;13.23;;
34459;SDS011;20704;51.260;22.558;2023-01-23T22:55:45;35.43;;;14.30;;
34459;SDS011;20704;51.260;22.558;2023-01-23T22:57:50;31.03;;;12.93;;
34459;SDS011;20704;51.260;22.558;2023-01-23T22:59:52;35.10;;;14.47;;
34459;SDS011;20704;51.260;22.558;2023-01-23T23:01:55;35.63;;;13.43;;
34459;SDS011;20704;51.260;22.558;2023-01-23T23:03:58;34.80;;;14.17;;
34459;SDS011;20704;51.260;22.558;2023-01-23T23:06:05;35.73;;;14.53;;
34459;SDS011;20704;51.260;22.558;2023-01-23T23:08:08;34.60;;;13.67;;
34459;SDS011;20704;51.260;22.558;2023-01-23T23:10:12;42.50;;;15.80;;
34459;SDS011;20704;51.260;22.558;2023-01-23T23:12:14;36.17;;;13.70;;
34459;SDS011;20704;51.260;22.558;2023-01-23T23:14:18;36.17;;;14.00;;
34459;SDS011;20704;51.260;22.558;2023-01-23T23:16:21;33.07;;;13.60;;
34459;SDS011;20704;51.260;22.558;2023-01-23T23:18:26;30.93;;;14.07;;
34459;SDS011;20704;51.260;22.558;2023-01-23T23:20:29;31.03;;;13.10;;
34459;SDS011;20704;51.260;22.558;2023-01-23T23:22:32;32.63;;;11.80;;
34459;SDS011;20704;51.260;22.558;2023-01-23T23:24:35;29.70;;;12.37;;
34459;SDS011;20704;51.260;22.558;2023-01-23T23:40:21;30.17;;;10.13;;
34459;SDS011;20704;51.260;22.558;2023-01-23T23:42:24;20.53;;;8.87;;
34459;SDS011;20704;51.260;22.558;2023-01-23T23:44:27;21.83;;;9.90;;
34459;SDS011;20704;51.260;22.558;2023-01-23T23:46:30;23.30;;;10.20;;
34459;SDS011;20704;51.260;22.558;2023-01-23T23:48:33;26.60;;;10.07;;
34459;SDS011;20704;51.260;22.558;2023-01-23T23:50:36;24.33;;;10.83;;
34459;SDS011;20704;51.260;22.558;2023-01-23T23:52:39;16.53;;;8.20;;
34459;SDS011;20704;51.260;22.558;2023-01-23T23:54:42;21.57;;;8.57;;
34459;SDS011;20704;51.260;22.558;2023-01-23T23:56:44;17.33;;;8.00;;
34459;SDS011;20704;51.260;22.558;2023-01-23T23:58:46;15.00;;;7.30;;
